SWA64 KDCA-KHOU
Flight info
| Callsign | SWA64 |
|---|---|
| Flight time | 2h 43m |
| Altitude | 36000 |
| Route | CLTCH3 MAULS Q40 AEX WAPPL7 |
| Aircraft | B737/M-SDE2E3FGHIRWXY/LB1 |
Departure
| Time | 2026-04-25 06:17 |
|---|---|
| Airport | Ronald Reagan Washington National Airport (KDCA) |
Arrival
| Time | 2026-04-25 09:01 |
|---|---|
| Airport | William P. Hobby Airport (KHOU) |
| Time | Latitude | Longitude | Altitude | Speed | Heading |
|---|---|---|---|---|---|
| 2026-04-25 06:00 | 38.85361 | -77.04152 | 23 ft | 0 kts | 348° |
| 2026-04-25 06:11 | 38.85360 | -77.04152 | 23 ft | 2 kts | 348° |
| 2026-04-25 06:11 | 38.85334 | -77.04145 | 23 ft | 4 kts | 348° |
| 2026-04-25 06:11 | 38.85316 | -77.04140 | 25 ft | 4 kts | 22° |
| 2026-04-25 06:12 | 38.85303 | -77.04160 | 23 ft | 4 kts | 72° |
| 2026-04-25 06:12 | 38.85298 | -77.04179 | 26 ft | 0 kts | 72° |
| 2026-04-25 06:14 | 38.85300 | -77.04171 | 25 ft | 4 kts | 72° |
| 2026-04-25 06:14 | 38.85317 | -77.04103 | 26 ft | 12 kts | 72° |
| 2026-04-25 06:15 | 38.85340 | -77.03980 | 26 ft | 11 kts | 84° |
| 2026-04-25 06:15 | 38.85413 | -77.03942 | 25 ft | 16 kts | 355° |
| 2026-04-25 06:15 | 38.85545 | -77.03955 | 25 ft | 22 kts | 355° |
| 2026-04-25 06:15 | 38.85711 | -77.03972 | 29 ft | 24 kts | 354° |
| 2026-04-25 06:16 | 38.85869 | -77.03988 | 26 ft | 22 kts | 355° |
| 2026-04-25 06:16 | 38.85999 | -77.03956 | 27 ft | 18 kts | 16° |
| 2026-04-25 06:16 | 38.86080 | -77.03910 | 24 ft | 9 kts | 56° |
| 2026-04-25 06:16 | 38.86061 | -77.03863 | 23 ft | 7 kts | 189° |
| 2026-04-25 06:17 | 38.85928 | -77.03854 | 26 ft | 52 kts | 175° |
| 2026-04-25 06:17 | 38.85264 | -77.03788 | 22 ft | 136 kts | 175° |
| 2026-04-25 06:17 | 38.84163 | -77.03689 | 394 ft | 174 kts | 175° |
| 2026-04-25 06:17 | 38.82920 | -77.03617 | 1331 ft | 184 kts | 178° |
| 2026-04-25 06:18 | 38.81605 | -77.03600 | 2190 ft | 201 kts | 178° |
| 2026-04-25 06:18 | 38.80096 | -77.03576 | 2578 ft | 231 kts | 177° |
| 2026-04-25 06:18 | 38.78433 | -77.03542 | 3250 ft | 248 kts | 178° |
| 2026-04-25 06:18 | 38.76711 | -77.03955 | 4133 ft | 260 kts | 205° |
| 2026-04-25 06:19 | 38.75241 | -77.05313 | 5263 ft | 265 kts | 228° |
| 2026-04-25 06:19 | 38.74325 | -77.07361 | 6434 ft | 267 kts | 249° |
| 2026-04-25 06:19 | 38.73788 | -77.09606 | 7628 ft | 267 kts | 253° |
| 2026-04-25 06:19 | 38.73289 | -77.11923 | 8694 ft | 272 kts | 255° |
| 2026-04-25 06:20 | 38.72777 | -77.14285 | 9700 ft | 277 kts | 255° |
| 2026-04-25 06:20 | 38.72241 | -77.16690 | 10560 ft | 288 kts | 256° |
| 2026-04-25 06:20 | 38.71659 | -77.19279 | 10853 ft | 318 kts | 256° |
| 2026-04-25 06:20 | 38.71014 | -77.22095 | 11412 ft | 336 kts | 255° |
| 2026-04-25 06:21 | 38.70241 | -77.24908 | 12279 ft | 342 kts | 251° |
| 2026-04-25 06:21 | 38.69344 | -77.27742 | 13223 ft | 346 kts | 250° |
| 2026-04-25 06:21 | 38.68406 | -77.30603 | 14117 ft | 351 kts | 250° |
| 2026-04-25 06:21 | 38.67452 | -77.33507 | 14966 ft | 356 kts | 250° |
| 2026-04-25 06:22 | 38.66492 | -77.36453 | 15803 ft | 361 kts | 250° |
| 2026-04-25 06:22 | 38.65524 | -77.39449 | 16593 ft | 366 kts | 250° |
| 2026-04-25 06:22 | 38.64557 | -77.42457 | 17377 ft | 371 kts | 250° |
| 2026-04-25 06:22 | 38.63572 | -77.45529 | 18122 ft | 377 kts | 250° |
| 2026-04-25 06:23 | 38.62571 | -77.48656 | 18842 ft | 382 kts | 250° |
| 2026-04-25 06:23 | 38.61554 | -77.51828 | 19571 ft | 387 kts | 250° |
| 2026-04-25 06:23 | 38.60527 | -77.55031 | 20299 ft | 391 kts | 250° |
| 2026-04-25 06:23 | 38.59502 | -77.58224 | 20956 ft | 395 kts | 251° |
| 2026-04-25 06:24 | 38.58451 | -77.61494 | 21615 ft | 399 kts | 251° |
| 2026-04-25 06:24 | 38.57391 | -77.64785 | 22246 ft | 403 kts | 251° |
| 2026-04-25 06:24 | 38.56320 | -77.68116 | 22849 ft | 407 kts | 251° |
| 2026-04-25 06:24 | 38.55234 | -77.71486 | 23433 ft | 411 kts | 251° |
| 2026-04-25 06:25 | 38.54138 | -77.74881 | 24005 ft | 415 kts | 251° |
| 2026-04-25 06:25 | 38.52956 | -77.78228 | 24530 ft | 422 kts | 245° |
| 2026-04-25 06:25 | 38.51355 | -77.81404 | 25078 ft | 429 kts | 235° |
| 2026-04-25 06:25 | 38.49366 | -77.84275 | 25646 ft | 434 kts | 231° |
| 2026-04-25 06:26 | 38.47293 | -77.87087 | 26186 ft | 436 kts | 231° |
| 2026-04-25 06:26 | 38.45223 | -77.89928 | 26696 ft | 438 kts | 232° |
| 2026-04-25 06:26 | 38.43292 | -77.92957 | 27201 ft | 439 kts | 238° |
| 2026-04-25 06:26 | 38.41526 | -77.96124 | 27729 ft | 439 kts | 239° |
| 2026-04-25 06:27 | 38.39787 | -77.99343 | 28203 ft | 441 kts | 239° |
| 2026-04-25 06:27 | 38.38044 | -78.02580 | 28641 ft | 444 kts | 239° |
| 2026-04-25 06:27 | 38.36277 | -78.05833 | 29044 ft | 447 kts | 239° |
| 2026-04-25 06:27 | 38.34512 | -78.09045 | 29451 ft | 449 kts | 238° |
| 2026-04-25 06:28 | 38.32704 | -78.12309 | 29862 ft | 451 kts | 238° |
| 2026-04-25 06:28 | 38.30885 | -78.15577 | 30261 ft | 453 kts | 238° |
| 2026-04-25 06:28 | 38.29052 | -78.18864 | 30615 ft | 455 kts | 238° |
| 2026-04-25 06:28 | 38.27208 | -78.22167 | 30999 ft | 457 kts | 238° |
| 2026-04-25 06:29 | 38.25364 | -78.25467 | 31444 ft | 457 kts | 238° |
| 2026-04-25 06:29 | 38.23522 | -78.28760 | 31898 ft | 455 kts | 239° |
| 2026-04-25 06:29 | 38.21708 | -78.32003 | 32304 ft | 455 kts | 239° |
| 2026-04-25 06:29 | 38.19868 | -78.35289 | 32675 ft | 456 kts | 239° |
| 2026-04-25 06:30 | 38.18062 | -78.38608 | 33055 ft | 453 kts | 243° |
| 2026-04-25 06:30 | 38.16612 | -78.42139 | 33421 ft | 447 kts | 252° |
| 2026-04-25 06:30 | 38.15472 | -78.45759 | 33808 ft | 446 kts | 253° |
| 2026-04-25 06:30 | 38.14356 | -78.49433 | 34178 ft | 445 kts | 253° |
| 2026-04-25 06:31 | 38.13247 | -78.53106 | 34534 ft | 444 kts | 253° |
| 2026-04-25 06:31 | 38.12136 | -78.56755 | 34944 ft | 442 kts | 253° |
| 2026-04-25 06:31 | 38.11016 | -78.60389 | 35365 ft | 439 kts | 253° |
| 2026-04-25 06:31 | 38.09897 | -78.63987 | 35788 ft | 436 kts | 253° |
| 2026-04-25 06:32 | 38.08794 | -78.67512 | 36148 ft | 434 kts | 253° |
| 2026-04-25 06:32 | 38.07677 | -78.71070 | 36476 ft | 433 kts | 253° |
| 2026-04-25 06:32 | 38.06562 | -78.74613 | 36774 ft | 432 kts | 253° |
| 2026-04-25 06:32 | 38.05450 | -78.78144 | 37149 ft | 428 kts | 253° |
| 2026-04-25 06:33 | 38.04351 | -78.81626 | 37577 ft | 423 kts | 253° |
| 2026-04-25 06:33 | 38.03260 | -78.85075 | 38027 ft | 417 kts | 253° |
| 2026-04-25 06:33 | 38.02196 | -78.88437 | 38353 ft | 414 kts | 253° |
| 2026-04-25 06:33 | 38.01124 | -78.91828 | 38538 ft | 415 kts | 253° |
| 2026-04-25 06:34 | 38.00047 | -78.95235 | 38746 ft | 415 kts | 253° |
| 2026-04-25 06:34 | 37.98971 | -78.98628 | 38983 ft | 414 kts | 252° |
| 2026-04-25 06:34 | 37.97895 | -79.02022 | 39078 ft | 416 kts | 252° |
| 2026-04-25 06:34 | 37.96812 | -79.05432 | 39237 ft | 417 kts | 252° |
| 2026-04-25 06:35 | 37.95724 | -79.08851 | 39470 ft | 417 kts | 252° |
| 2026-04-25 06:35 | 37.94637 | -79.12253 | 39683 ft | 416 kts | 252° |
| 2026-04-25 06:35 | 37.93562 | -79.15623 | 39855 ft | 417 kts | 252° |
| 2026-04-25 06:36 | 37.91368 | -79.22493 | 39896 ft | 420 kts | 252° |
| 2026-04-25 06:36 | 37.89190 | -79.29289 | 39901 ft | 416 kts | 251° |
| 2026-04-25 06:37 | 37.86649 | -79.35865 | 39917 ft | 417 kts | 242° |
| 2026-04-25 06:37 | 37.83508 | -79.42017 | 39924 ft | 414 kts | 241° |
| 2026-04-25 06:38 | 37.80394 | -79.48086 | 39922 ft | 412 kts | 241° |
| 2026-04-25 06:38 | 37.77278 | -79.54195 | 39941 ft | 416 kts | 242° |
| 2026-04-25 06:39 | 37.74122 | -79.60407 | 39937 ft | 422 kts | 241° |
| 2026-04-25 06:39 | 37.70957 | -79.66626 | 39933 ft | 423 kts | 241° |
| 2026-04-25 06:40 | 37.67765 | -79.72886 | 39935 ft | 423 kts | 241° |
| 2026-04-25 06:40 | 37.64597 | -79.79092 | 39923 ft | 423 kts | 241° |
| 2026-04-25 06:41 | 37.61400 | -79.85340 | 39928 ft | 422 kts | 241° |
| 2026-04-25 06:41 | 37.58228 | -79.91528 | 39925 ft | 421 kts | 241° |
| 2026-04-25 06:42 | 37.55050 | -79.97716 | 39922 ft | 419 kts | 241° |
| 2026-04-25 06:42 | 37.52410 | -80.02848 | 39923 ft | 419 kts | 241° |
| 2026-04-25 06:43 | 37.49238 | -80.09006 | 39924 ft | 418 kts | 241° |
| 2026-04-25 06:43 | 37.46068 | -80.15145 | 39924 ft | 417 kts | 241° |
| 2026-04-25 06:44 | 37.42923 | -80.21226 | 39929 ft | 416 kts | 241° |
| 2026-04-25 06:44 | 37.39751 | -80.27350 | 39933 ft | 416 kts | 240° |
| 2026-04-25 06:45 | 37.36602 | -80.33414 | 39953 ft | 417 kts | 240° |
| 2026-04-25 06:45 | 37.33425 | -80.39529 | 39964 ft | 418 kts | 240° |
| 2026-04-25 06:46 | 37.30229 | -80.45668 | 39963 ft | 420 kts | 240° |
| 2026-04-25 06:46 | 37.27035 | -80.51797 | 39965 ft | 421 kts | 240° |
| 2026-04-25 06:47 | 37.23969 | -80.58091 | 39961 ft | 422 kts | 242° |
| 2026-04-25 06:47 | 37.20982 | -80.64402 | 39949 ft | 423 kts | 242° |
| 2026-04-25 06:48 | 37.17954 | -80.70747 | 39948 ft | 423 kts | 242° |
| 2026-04-25 06:48 | 37.14923 | -80.77046 | 39936 ft | 423 kts | 242° |
| 2026-04-25 06:49 | 37.11865 | -80.83374 | 39947 ft | 423 kts | 242° |
| 2026-04-25 06:49 | 37.08811 | -80.89687 | 39949 ft | 423 kts | 242° |
| 2026-04-25 06:50 | 37.05769 | -80.95953 | 39951 ft | 423 kts | 241° |
| 2026-04-25 06:50 | 37.02709 | -81.02250 | 39958 ft | 422 kts | 241° |
| 2026-04-25 06:51 | 36.99668 | -81.08499 | 39963 ft | 421 kts | 241° |
| 2026-04-25 06:51 | 36.96613 | -81.14764 | 39978 ft | 421 kts | 241° |
| 2026-04-25 06:52 | 36.93558 | -81.21018 | 39978 ft | 421 kts | 241° |
| 2026-04-25 06:52 | 36.90520 | -81.27222 | 39987 ft | 420 kts | 241° |
| 2026-04-25 06:53 | 36.87462 | -81.33461 | 39994 ft | 420 kts | 241° |
| 2026-04-25 06:53 | 36.84397 | -81.39702 | 39990 ft | 421 kts | 240° |
| 2026-04-25 06:54 | 36.81343 | -81.45906 | 39995 ft | 422 kts | 240° |
| 2026-04-25 06:54 | 36.78255 | -81.52166 | 39987 ft | 423 kts | 240° |
| 2026-04-25 06:55 | 36.75169 | -81.58415 | 39980 ft | 423 kts | 240° |
| 2026-04-25 06:55 | 36.72069 | -81.64654 | 39983 ft | 424 kts | 240° |
| 2026-04-25 06:56 | 36.68909 | -81.70825 | 39963 ft | 424 kts | 239° |
| 2026-04-25 06:56 | 36.65718 | -81.77012 | 39975 ft | 424 kts | 239° |
| 2026-04-25 06:57 | 36.62523 | -81.83210 | 39957 ft | 425 kts | 239° |
| 2026-04-25 06:57 | 36.59343 | -81.89382 | 39959 ft | 426 kts | 239° |
| 2026-04-25 06:58 | 36.56136 | -81.95600 | 39959 ft | 426 kts | 239° |
| 2026-04-25 06:58 | 36.52926 | -82.01814 | 39950 ft | 426 kts | 239° |
| 2026-04-25 06:59 | 36.49742 | -82.07964 | 39954 ft | 425 kts | 239° |
| 2026-04-25 06:59 | 36.46533 | -82.14150 | 39953 ft | 424 kts | 239° |
| 2026-04-25 07:00 | 36.43332 | -82.20311 | 39945 ft | 424 kts | 239° |
| 2026-04-25 07:00 | 36.40147 | -82.26431 | 39940 ft | 423 kts | 238° |
| 2026-04-25 07:01 | 36.36947 | -82.32569 | 39945 ft | 423 kts | 238° |
| 2026-04-25 07:01 | 36.33748 | -82.38700 | 39945 ft | 422 kts | 238° |
| 2026-04-25 07:02 | 36.30568 | -82.44776 | 39936 ft | 422 kts | 238° |
| 2026-04-25 07:02 | 36.27365 | -82.50882 | 39936 ft | 421 kts | 238° |
| 2026-04-25 07:03 | 36.24184 | -82.56936 | 39937 ft | 421 kts | 238° |
| 2026-04-25 07:03 | 36.20972 | -82.63044 | 39937 ft | 421 kts | 238° |
| 2026-04-25 07:04 | 36.17788 | -82.69086 | 39926 ft | 421 kts | 238° |
| 2026-04-25 07:04 | 36.14575 | -82.75170 | 39927 ft | 421 kts | 238° |
| 2026-04-25 07:05 | 36.11372 | -82.81226 | 39923 ft | 421 kts | 238° |
| 2026-04-25 07:05 | 36.08179 | -82.87256 | 39932 ft | 420 kts | 238° |
| 2026-04-25 07:06 | 36.04969 | -82.93308 | 39924 ft | 420 kts | 238° |
| 2026-04-25 07:06 | 36.01759 | -82.99342 | 39933 ft | 419 kts | 238° |
| 2026-04-25 07:07 | 35.98575 | -83.05320 | 39934 ft | 419 kts | 238° |
| 2026-04-25 07:07 | 35.95368 | -83.11335 | 39935 ft | 419 kts | 238° |
| 2026-04-25 07:08 | 35.92148 | -83.17360 | 39940 ft | 420 kts | 238° |
| 2026-04-25 07:08 | 35.89038 | -83.23453 | 39939 ft | 420 kts | 240° |
| 2026-04-25 07:09 | 35.86051 | -83.29601 | 39938 ft | 420 kts | 240° |
| 2026-04-25 07:09 | 35.83022 | -83.35785 | 39935 ft | 421 kts | 240° |
| 2026-04-25 07:10 | 35.79973 | -83.41955 | 39938 ft | 421 kts | 240° |
| 2026-04-25 07:10 | 35.76933 | -83.48090 | 39928 ft | 421 kts | 239° |
| 2026-04-25 07:11 | 35.73868 | -83.54261 | 39931 ft | 421 kts | 239° |
| 2026-04-25 07:11 | 35.70677 | -83.60315 | 39930 ft | 420 kts | 237° |
| 2026-04-25 07:12 | 35.67427 | -83.66243 | 39935 ft | 419 kts | 237° |
| 2026-04-25 07:12 | 35.62555 | -83.75164 | 39932 ft | 417 kts | 237° |
| 2026-04-25 07:13 | 35.59343 | -83.81068 | 39940 ft | 416 kts | 237° |
| 2026-04-25 07:13 | 35.56129 | -83.86976 | 39933 ft | 416 kts | 237° |
| 2026-04-25 07:14 | 35.52910 | -83.92885 | 39932 ft | 416 kts | 237° |
| 2026-04-25 07:14 | 35.49690 | -83.98787 | 39932 ft | 416 kts | 237° |
| 2026-04-25 07:15 | 35.46478 | -84.04662 | 39940 ft | 416 kts | 237° |
| 2026-04-25 07:15 | 35.43243 | -84.10567 | 39938 ft | 417 kts | 237° |
| 2026-04-25 07:16 | 35.40023 | -84.16439 | 39936 ft | 417 kts | 237° |
| 2026-04-25 07:16 | 35.36778 | -84.22345 | 39928 ft | 417 kts | 237° |
| 2026-04-25 07:17 | 35.33543 | -84.28218 | 39926 ft | 417 kts | 237° |
| 2026-04-25 07:17 | 35.30287 | -84.34121 | 39927 ft | 417 kts | 237° |
| 2026-04-25 07:18 | 35.27032 | -84.40020 | 39931 ft | 417 kts | 237° |
| 2026-04-25 07:18 | 35.23788 | -84.45884 | 39928 ft | 418 kts | 237° |
| 2026-04-25 07:19 | 35.20519 | -84.51780 | 39928 ft | 418 kts | 237° |
| 2026-04-25 07:19 | 35.17256 | -84.57656 | 39936 ft | 417 kts | 237° |
| 2026-04-25 07:20 | 35.14011 | -84.63492 | 39927 ft | 417 kts | 237° |
| 2026-04-25 07:20 | 35.10735 | -84.69372 | 39909 ft | 417 kts | 237° |
| 2026-04-25 07:21 | 35.07477 | -84.75213 | 39908 ft | 417 kts | 237° |
| 2026-04-25 07:21 | 35.04208 | -84.81070 | 39911 ft | 417 kts | 237° |
| 2026-04-25 07:22 | 35.00950 | -84.86887 | 39910 ft | 416 kts | 237° |
| 2026-04-25 07:22 | 34.97675 | -84.92727 | 39910 ft | 416 kts | 237° |
| 2026-04-25 07:23 | 34.94421 | -84.98520 | 39917 ft | 416 kts | 237° |
| 2026-04-25 07:23 | 34.91144 | -85.04348 | 39918 ft | 416 kts | 237° |
| 2026-04-25 07:24 | 34.87866 | -85.10168 | 39918 ft | 416 kts | 237° |
| 2026-04-25 07:24 | 34.84594 | -85.15967 | 39917 ft | 416 kts | 237° |
| 2026-04-25 07:25 | 34.81307 | -85.21787 | 39919 ft | 417 kts | 237° |
| 2026-04-25 07:25 | 34.78031 | -85.27571 | 39918 ft | 417 kts | 237° |
| 2026-04-25 07:26 | 34.74727 | -85.33386 | 39916 ft | 417 kts | 237° |
| 2026-04-25 07:26 | 34.71442 | -85.39158 | 39905 ft | 417 kts | 237° |
| 2026-04-25 07:27 | 34.68131 | -85.44966 | 39901 ft | 417 kts | 237° |
| 2026-04-25 07:27 | 34.64820 | -85.50769 | 39909 ft | 417 kts | 237° |
| 2026-04-25 07:28 | 34.61510 | -85.56562 | 39904 ft | 418 kts | 237° |
| 2026-04-25 07:28 | 34.58217 | -85.62317 | 39908 ft | 417 kts | 237° |
| 2026-04-25 07:29 | 34.54898 | -85.68107 | 39906 ft | 418 kts | 236° |
| 2026-04-25 07:29 | 34.51571 | -85.73896 | 39910 ft | 418 kts | 236° |
| 2026-04-25 07:30 | 34.48264 | -85.79645 | 39904 ft | 418 kts | 236° |
| 2026-04-25 07:30 | 34.44926 | -85.85442 | 39908 ft | 418 kts | 236° |
| 2026-04-25 07:31 | 34.41595 | -85.91212 | 39902 ft | 418 kts | 236° |
| 2026-04-25 07:31 | 34.38268 | -85.96965 | 39900 ft | 419 kts | 236° |
| 2026-04-25 07:32 | 34.34917 | -86.02753 | 39896 ft | 419 kts | 236° |
| 2026-04-25 07:32 | 34.31586 | -86.08497 | 39890 ft | 418 kts | 236° |
| 2026-04-25 07:33 | 34.28797 | -86.13298 | 39886 ft | 418 kts | 236° |
| 2026-04-25 07:33 | 34.25451 | -86.19058 | 39890 ft | 417 kts | 236° |
| 2026-04-25 07:34 | 34.22097 | -86.24814 | 39901 ft | 417 kts | 236° |
| 2026-04-25 07:34 | 34.18770 | -86.30516 | 39897 ft | 417 kts | 236° |
| 2026-04-25 07:35 | 34.15418 | -86.36254 | 39899 ft | 417 kts | 236° |
| 2026-04-25 07:35 | 34.12067 | -86.41979 | 39898 ft | 417 kts | 236° |
| 2026-04-25 07:36 | 34.08742 | -86.47657 | 39897 ft | 416 kts | 236° |
| 2026-04-25 07:36 | 34.05394 | -86.53359 | 39901 ft | 416 kts | 236° |
| 2026-04-25 07:37 | 34.02052 | -86.59051 | 39895 ft | 416 kts | 236° |
| 2026-04-25 07:37 | 33.98704 | -86.64747 | 39898 ft | 416 kts | 236° |
| 2026-04-25 07:38 | 33.95363 | -86.70432 | 39893 ft | 415 kts | 236° |
| 2026-04-25 07:38 | 33.92036 | -86.76075 | 39890 ft | 415 kts | 236° |
| 2026-04-25 07:39 | 33.88683 | -86.81760 | 39900 ft | 415 kts | 236° |
| 2026-04-25 07:39 | 33.85326 | -86.87441 | 39901 ft | 416 kts | 236° |
| 2026-04-25 07:40 | 33.81989 | -86.93079 | 39898 ft | 415 kts | 236° |
| 2026-04-25 07:40 | 33.78637 | -86.98735 | 39899 ft | 415 kts | 236° |
| 2026-04-25 07:41 | 33.75303 | -87.04350 | 39900 ft | 414 kts | 236° |
| 2026-04-25 07:41 | 33.71951 | -87.09987 | 39895 ft | 414 kts | 236° |
| 2026-04-25 07:42 | 33.68623 | -87.15577 | 39897 ft | 412 kts | 236° |
| 2026-04-25 07:42 | 33.65279 | -87.21183 | 39896 ft | 411 kts | 236° |
| 2026-04-25 07:43 | 33.61965 | -87.26730 | 39898 ft | 411 kts | 236° |
| 2026-04-25 07:43 | 33.58628 | -87.32308 | 39901 ft | 410 kts | 237° |
| 2026-04-25 07:44 | 33.55291 | -87.37877 | 39897 ft | 409 kts | 236° |
| 2026-04-25 07:44 | 33.51986 | -87.43387 | 39895 ft | 409 kts | 236° |
| 2026-04-25 07:45 | 33.48662 | -87.48920 | 39901 ft | 408 kts | 237° |
| 2026-04-25 07:45 | 33.45341 | -87.54438 | 39897 ft | 408 kts | 237° |
| 2026-04-25 07:46 | 33.42039 | -87.59918 | 39897 ft | 407 kts | 237° |
| 2026-04-25 07:46 | 33.38910 | -87.65561 | 39890 ft | 405 kts | 243° |
| 2026-04-25 07:47 | 33.36334 | -87.71527 | 39886 ft | 405 kts | 245° |
| 2026-04-25 07:47 | 33.33790 | -87.77542 | 39888 ft | 405 kts | 245° |
| 2026-04-25 07:48 | 33.31217 | -87.83543 | 39892 ft | 405 kts | 244° |
| 2026-04-25 07:48 | 33.28631 | -87.89510 | 39878 ft | 406 kts | 244° |
| 2026-04-25 07:49 | 33.26019 | -87.95513 | 39869 ft | 407 kts | 244° |
| 2026-04-25 07:49 | 33.23414 | -88.01486 | 39869 ft | 407 kts | 244° |
| 2026-04-25 07:50 | 33.20796 | -88.07475 | 39883 ft | 406 kts | 244° |
| 2026-04-25 07:50 | 33.18177 | -88.13457 | 39886 ft | 406 kts | 244° |
| 2026-04-25 07:51 | 33.15569 | -88.19404 | 39884 ft | 405 kts | 244° |
| 2026-04-25 07:51 | 33.12946 | -88.25376 | 39887 ft | 405 kts | 244° |
| 2026-04-25 07:52 | 33.10338 | -88.31308 | 39898 ft | 405 kts | 244° |
| 2026-04-25 07:52 | 33.07713 | -88.37265 | 39899 ft | 405 kts | 244° |
| 2026-04-25 07:53 | 33.05084 | -88.43222 | 39897 ft | 406 kts | 244° |
| 2026-04-25 07:53 | 33.02467 | -88.49146 | 39901 ft | 406 kts | 244° |
| 2026-04-25 07:54 | 32.99825 | -88.55109 | 39901 ft | 406 kts | 244° |
| 2026-04-25 07:54 | 32.97193 | -88.61044 | 39898 ft | 407 kts | 244° |
| 2026-04-25 07:55 | 32.94534 | -88.67029 | 39897 ft | 408 kts | 244° |
| 2026-04-25 07:55 | 32.91886 | -88.72981 | 39902 ft | 408 kts | 244° |
| 2026-04-25 07:56 | 32.89222 | -88.78955 | 39908 ft | 409 kts | 244° |
| 2026-04-25 07:56 | 32.86563 | -88.84907 | 39910 ft | 409 kts | 244° |
| 2026-04-25 07:57 | 32.83883 | -88.90899 | 39907 ft | 409 kts | 243° |
| 2026-04-25 07:57 | 32.81216 | -88.96853 | 39907 ft | 410 kts | 243° |
| 2026-04-25 07:58 | 32.78524 | -89.02850 | 39897 ft | 410 kts | 243° |
| 2026-04-25 07:58 | 32.75836 | -89.08831 | 39883 ft | 410 kts | 243° |
| 2026-04-25 07:59 | 32.73159 | -89.14777 | 39870 ft | 410 kts | 243° |
| 2026-04-25 07:59 | 32.70463 | -89.20757 | 39867 ft | 409 kts | 243° |
| 2026-04-25 08:00 | 32.67791 | -89.26673 | 39870 ft | 409 kts | 243° |
| 2026-04-25 08:00 | 32.65099 | -89.32625 | 39880 ft | 409 kts | 243° |
| 2026-04-25 08:01 | 32.62437 | -89.38561 | 39879 ft | 408 kts | 244° |
| 2026-04-25 08:01 | 32.59962 | -89.44635 | 39884 ft | 408 kts | 246° |
| 2026-04-25 08:02 | 32.57551 | -89.50688 | 39886 ft | 409 kts | 245° |
| 2026-04-25 08:02 | 32.55097 | -89.56784 | 39897 ft | 409 kts | 245° |
| 2026-04-25 08:03 | 32.52627 | -89.62866 | 39898 ft | 410 kts | 245° |
| 2026-04-25 08:03 | 32.50146 | -89.68954 | 39903 ft | 411 kts | 245° |
| 2026-04-25 08:04 | 32.47654 | -89.75053 | 39907 ft | 411 kts | 245° |
| 2026-04-25 08:04 | 32.45170 | -89.81120 | 39916 ft | 412 kts | 245° |
| 2026-04-25 08:05 | 32.42656 | -89.87249 | 39915 ft | 413 kts | 245° |
| 2026-04-25 08:05 | 32.40130 | -89.93401 | 39906 ft | 415 kts | 245° |
| 2026-04-25 08:06 | 32.37613 | -89.99524 | 39899 ft | 416 kts | 245° |
| 2026-04-25 08:06 | 32.35066 | -90.05700 | 39891 ft | 417 kts | 245° |
| 2026-04-25 08:07 | 32.32531 | -90.11835 | 39876 ft | 418 kts | 245° |
| 2026-04-25 08:07 | 32.29975 | -90.18008 | 39868 ft | 417 kts | 245° |
| 2026-04-25 08:08 | 32.27424 | -90.24166 | 39864 ft | 416 kts | 245° |
| 2026-04-25 08:08 | 32.24879 | -90.30303 | 39864 ft | 415 kts | 245° |
| 2026-04-25 08:09 | 32.22348 | -90.36391 | 39869 ft | 415 kts | 245° |
| 2026-04-25 08:09 | 32.19815 | -90.42472 | 39881 ft | 414 kts | 245° |
| 2026-04-25 08:10 | 32.17265 | -90.48586 | 39878 ft | 414 kts | 245° |
| 2026-04-25 08:10 | 32.14729 | -90.54653 | 39883 ft | 414 kts | 245° |
| 2026-04-25 08:11 | 32.12177 | -90.60751 | 39889 ft | 413 kts | 244° |
| 2026-04-25 08:11 | 32.09639 | -90.66802 | 39887 ft | 413 kts | 244° |
| 2026-04-25 08:12 | 32.07087 | -90.72875 | 39889 ft | 414 kts | 244° |
| 2026-04-25 08:12 | 32.04530 | -90.78952 | 39889 ft | 413 kts | 244° |
| 2026-04-25 08:13 | 32.01964 | -90.85043 | 39890 ft | 413 kts | 244° |
| 2026-04-25 08:14 | 31.98132 | -90.94117 | 39895 ft | 414 kts | 245° |
| 2026-04-25 08:14 | 31.95558 | -91.00202 | 39898 ft | 414 kts | 245° |
| 2026-04-25 08:15 | 31.92994 | -91.06251 | 39909 ft | 415 kts | 245° |
| 2026-04-25 08:15 | 31.90406 | -91.12348 | 39912 ft | 416 kts | 245° |
| 2026-04-25 08:16 | 31.87812 | -91.18406 | 39916 ft | 417 kts | 244° |
| 2026-04-25 08:16 | 31.85036 | -91.24423 | 39926 ft | 418 kts | 243° |
| 2026-04-25 08:17 | 31.82212 | -91.30419 | 39930 ft | 419 kts | 243° |
| 2026-04-25 08:17 | 31.79415 | -91.36389 | 39939 ft | 420 kts | 243° |
| 2026-04-25 08:18 | 31.76601 | -91.42418 | 39949 ft | 420 kts | 243° |
| 2026-04-25 08:18 | 31.73803 | -91.48418 | 39947 ft | 421 kts | 243° |
| 2026-04-25 08:19 | 31.70983 | -91.54458 | 39956 ft | 421 kts | 243° |
| 2026-04-25 08:19 | 31.68173 | -91.60465 | 39953 ft | 422 kts | 243° |
| 2026-04-25 08:20 | 31.65342 | -91.66506 | 39959 ft | 422 kts | 243° |
| 2026-04-25 08:20 | 31.62504 | -91.72550 | 39953 ft | 422 kts | 243° |
| 2026-04-25 08:21 | 31.59684 | -91.78548 | 39953 ft | 422 kts | 243° |
| 2026-04-25 08:21 | 31.56844 | -91.84578 | 39946 ft | 421 kts | 243° |
| 2026-04-25 08:22 | 31.54005 | -91.90596 | 39935 ft | 421 kts | 243° |
| 2026-04-25 08:22 | 31.51184 | -91.96562 | 39923 ft | 421 kts | 243° |
| 2026-04-25 08:23 | 31.48339 | -92.02576 | 39917 ft | 420 kts | 243° |
| 2026-04-25 08:23 | 31.45520 | -92.08529 | 39910 ft | 420 kts | 243° |
| 2026-04-25 08:24 | 31.42682 | -92.14508 | 39899 ft | 419 kts | 243° |
| 2026-04-25 08:24 | 31.39851 | -92.20464 | 39898 ft | 418 kts | 243° |
| 2026-04-25 08:25 | 31.37039 | -92.26369 | 39898 ft | 417 kts | 243° |
| 2026-04-25 08:25 | 31.34212 | -92.32297 | 39897 ft | 416 kts | 244° |
| 2026-04-25 08:26 | 31.31390 | -92.38206 | 39897 ft | 415 kts | 244° |
| 2026-04-25 08:26 | 31.28574 | -92.44099 | 39901 ft | 414 kts | 244° |
| 2026-04-25 08:27 | 31.25753 | -92.49925 | 39902 ft | 415 kts | 241° |
| 2026-04-25 08:27 | 31.22201 | -92.55276 | 39907 ft | 417 kts | 235° |
| 2026-04-25 08:28 | 31.19147 | -92.59638 | 39912 ft | 416 kts | 235° |
| 2026-04-25 08:28 | 31.14889 | -92.65746 | 39904 ft | 416 kts | 235° |
| 2026-04-25 08:29 | 31.11857 | -92.70111 | 39905 ft | 415 kts | 236° |
| 2026-04-25 08:29 | 31.08220 | -92.75354 | 39898 ft | 414 kts | 236° |
| 2026-04-25 08:30 | 31.04613 | -92.80549 | 39888 ft | 414 kts | 236° |
| 2026-04-25 08:30 | 31.00983 | -92.85773 | 39883 ft | 414 kts | 236° |
| 2026-04-25 08:31 | 30.97355 | -92.90981 | 39882 ft | 414 kts | 236° |
| 2026-04-25 08:31 | 30.93744 | -92.96164 | 39879 ft | 413 kts | 236° |
| 2026-04-25 08:32 | 30.90108 | -93.01371 | 39879 ft | 413 kts | 236° |
| 2026-04-25 08:32 | 30.86495 | -93.06539 | 39881 ft | 412 kts | 236° |
| 2026-04-25 08:33 | 30.82872 | -93.11715 | 39878 ft | 412 kts | 236° |
| 2026-04-25 08:33 | 30.79269 | -93.16854 | 39877 ft | 411 kts | 236° |
| 2026-04-25 08:34 | 30.75655 | -93.22003 | 39880 ft | 411 kts | 236° |
| 2026-04-25 08:34 | 30.72037 | -93.27153 | 39878 ft | 410 kts | 236° |
| 2026-04-25 08:35 | 30.68442 | -93.32262 | 39880 ft | 410 kts | 236° |
| 2026-04-25 08:35 | 30.64823 | -93.37398 | 39880 ft | 410 kts | 237° |
| 2026-04-25 08:36 | 30.61208 | -93.42523 | 39878 ft | 409 kts | 237° |
| 2026-04-25 08:36 | 30.59395 | -93.45092 | 39618 ft | 414 kts | 237° |
| 2026-04-25 08:36 | 30.57588 | -93.47655 | 39143 ft | 414 kts | 237° |
| 2026-04-25 08:36 | 30.55757 | -93.50242 | 38548 ft | 413 kts | 237° |
| 2026-04-25 08:37 | 30.53933 | -93.52818 | 37926 ft | 412 kts | 237° |
| 2026-04-25 08:37 | 30.52135 | -93.55356 | 37298 ft | 411 kts | 237° |
| 2026-04-25 08:37 | 30.50319 | -93.57918 | 36643 ft | 410 kts | 237° |
| 2026-04-25 08:37 | 30.48503 | -93.60479 | 35978 ft | 410 kts | 237° |
| 2026-04-25 08:38 | 30.46683 | -93.63043 | 35267 ft | 411 kts | 237° |
| 2026-04-25 08:38 | 30.44876 | -93.65587 | 34762 ft | 407 kts | 236° |
| 2026-04-25 08:38 | 30.43098 | -93.68088 | 34235 ft | 405 kts | 236° |
| 2026-04-25 08:38 | 30.41305 | -93.70609 | 33707 ft | 403 kts | 236° |
| 2026-04-25 08:39 | 30.39511 | -93.73133 | 33198 ft | 406 kts | 236° |
| 2026-04-25 08:39 | 30.37709 | -93.75669 | 32679 ft | 406 kts | 237° |
| 2026-04-25 08:39 | 30.35918 | -93.78182 | 32157 ft | 403 kts | 237° |
| 2026-04-25 08:39 | 30.34139 | -93.80676 | 31640 ft | 399 kts | 237° |
| 2026-04-25 08:40 | 30.32398 | -93.83115 | 31138 ft | 396 kts | 237° |
| 2026-04-25 08:40 | 30.30648 | -93.85568 | 30639 ft | 393 kts | 237° |
| 2026-04-25 08:40 | 30.28908 | -93.88005 | 30143 ft | 390 kts | 237° |
| 2026-04-25 08:40 | 30.27205 | -93.90388 | 29656 ft | 386 kts | 237° |
| 2026-04-25 08:41 | 30.25495 | -93.92779 | 29148 ft | 383 kts | 237° |
| 2026-04-25 08:41 | 30.23803 | -93.95146 | 28635 ft | 379 kts | 237° |
| 2026-04-25 08:41 | 30.22121 | -93.97496 | 28111 ft | 376 kts | 237° |
| 2026-04-25 08:41 | 30.20456 | -93.99821 | 27602 ft | 373 kts | 237° |
| 2026-04-25 08:42 | 30.18809 | -94.02120 | 27085 ft | 370 kts | 237° |
| 2026-04-25 08:42 | 30.17174 | -94.04402 | 26585 ft | 367 kts | 237° |
| 2026-04-25 08:42 | 30.15562 | -94.06650 | 26081 ft | 365 kts | 237° |
| 2026-04-25 08:42 | 30.13945 | -94.08903 | 25571 ft | 362 kts | 237° |
| 2026-04-25 08:43 | 30.12340 | -94.11139 | 25071 ft | 360 kts | 237° |
| 2026-04-25 08:43 | 30.10740 | -94.13366 | 24561 ft | 358 kts | 237° |
| 2026-04-25 08:43 | 30.09172 | -94.15548 | 24065 ft | 355 kts | 237° |
| 2026-04-25 08:43 | 30.07595 | -94.17742 | 23563 ft | 353 kts | 237° |
| 2026-04-25 08:44 | 30.06031 | -94.19916 | 23071 ft | 351 kts | 236° |
| 2026-04-25 08:44 | 30.04476 | -94.22075 | 22577 ft | 349 kts | 236° |
| 2026-04-25 08:44 | 30.02926 | -94.24226 | 22084 ft | 346 kts | 236° |
| 2026-04-25 08:44 | 30.01404 | -94.26339 | 21596 ft | 344 kts | 236° |
| 2026-04-25 08:45 | 29.99878 | -94.28455 | 21103 ft | 341 kts | 236° |
| 2026-04-25 08:45 | 29.98363 | -94.30553 | 20613 ft | 338 kts | 236° |
| 2026-04-25 08:45 | 29.96862 | -94.32633 | 20119 ft | 335 kts | 235° |
| 2026-04-25 08:45 | 29.95373 | -94.34694 | 19638 ft | 332 kts | 235° |
| 2026-04-25 08:46 | 29.93913 | -94.36713 | 19161 ft | 330 kts | 234° |
| 2026-04-25 08:46 | 29.92449 | -94.38737 | 18678 ft | 327 kts | 234° |
| 2026-04-25 08:46 | 29.90998 | -94.40743 | 18207 ft | 324 kts | 234° |
| 2026-04-25 08:46 | 29.89559 | -94.42731 | 17728 ft | 321 kts | 234° |
| 2026-04-25 08:47 | 29.88134 | -94.44699 | 17256 ft | 318 kts | 234° |
| 2026-04-25 08:47 | 29.86738 | -94.46627 | 16789 ft | 316 kts | 234° |
| 2026-04-25 08:47 | 29.85340 | -94.48556 | 16323 ft | 313 kts | 234° |
| 2026-04-25 08:47 | 29.83948 | -94.50476 | 15855 ft | 310 kts | 234° |
| 2026-04-25 08:48 | 29.82565 | -94.52382 | 15391 ft | 308 kts | 234° |
| 2026-04-25 08:48 | 29.81192 | -94.54274 | 14929 ft | 306 kts | 233° |
| 2026-04-25 08:48 | 29.79847 | -94.56125 | 14474 ft | 303 kts | 233° |
| 2026-04-25 08:48 | 29.78497 | -94.57983 | 14019 ft | 301 kts | 233° |
| 2026-04-25 08:49 | 29.77155 | -94.59830 | 13565 ft | 299 kts | 233° |
| 2026-04-25 08:49 | 29.75825 | -94.61660 | 13130 ft | 297 kts | 233° |
| 2026-04-25 08:49 | 29.74510 | -94.63467 | 12804 ft | 294 kts | 233° |
| 2026-04-25 08:49 | 29.73187 | -94.65287 | 12375 ft | 299 kts | 233° |
| 2026-04-25 08:50 | 29.71852 | -94.67121 | 11923 ft | 298 kts | 233° |
| 2026-04-25 08:50 | 29.70534 | -94.68930 | 11476 ft | 296 kts | 233° |
| 2026-04-25 08:50 | 29.69215 | -94.70737 | 11021 ft | 294 kts | 232° |
| 2026-04-25 08:50 | 29.67905 | -94.72535 | 10571 ft | 292 kts | 232° |
| 2026-04-25 08:51 | 29.66603 | -94.74320 | 10159 ft | 289 kts | 231° |
| 2026-04-25 08:51 | 29.65338 | -94.76054 | 10067 ft | 279 kts | 231° |
| 2026-04-25 08:51 | 29.64082 | -94.77773 | 9675 ft | 282 kts | 231° |
| 2026-04-25 08:51 | 29.62826 | -94.79496 | 9282 ft | 280 kts | 231° |
| 2026-04-25 08:52 | 29.61581 | -94.81200 | 8882 ft | 278 kts | 231° |
| 2026-04-25 08:52 | 29.60357 | -94.82875 | 8491 ft | 276 kts | 230° |
| 2026-04-25 08:52 | 29.59122 | -94.84563 | 8094 ft | 275 kts | 230° |
| 2026-04-25 08:52 | 29.57897 | -94.86238 | 7707 ft | 273 kts | 230° |
| 2026-04-25 08:53 | 29.56673 | -94.87911 | 7308 ft | 272 kts | 230° |
| 2026-04-25 08:53 | 29.55456 | -94.89573 | 6921 ft | 271 kts | 230° |
| 2026-04-25 08:53 | 29.54247 | -94.91226 | 6531 ft | 269 kts | 230° |
| 2026-04-25 08:53 | 29.53042 | -94.92870 | 6147 ft | 268 kts | 230° |
| 2026-04-25 08:54 | 29.51858 | -94.94484 | 5770 ft | 267 kts | 230° |
| 2026-04-25 08:54 | 29.50660 | -94.96117 | 5375 ft | 266 kts | 229° |
| 2026-04-25 08:54 | 29.49470 | -94.97740 | 4989 ft | 264 kts | 229° |
| 2026-04-25 08:54 | 29.48284 | -94.99357 | 4593 ft | 263 kts | 229° |
| 2026-04-25 08:55 | 29.47126 | -95.00932 | 4339 ft | 256 kts | 229° |
| 2026-04-25 08:55 | 29.46065 | -95.02534 | 4179 ft | 249 kts | 242° |
| 2026-04-25 08:55 | 29.45741 | -95.04458 | 4055 ft | 246 kts | 274° |
| 2026-04-25 08:55 | 29.46275 | -95.06286 | 3998 ft | 240 kts | 299° |
| 2026-04-25 08:56 | 29.47301 | -95.07721 | 3994 ft | 230 kts | 311° |
| 2026-04-25 08:56 | 29.48410 | -95.09000 | 3987 ft | 220 kts | 312° |
| 2026-04-25 08:56 | 29.49503 | -95.10192 | 3920 ft | 215 kts | 316° |
| 2026-04-25 08:56 | 29.50603 | -95.11321 | 3682 ft | 209 kts | 313° |
| 2026-04-25 08:57 | 29.51627 | -95.12483 | 3416 ft | 204 kts | 311° |
| 2026-04-25 08:57 | 29.52601 | -95.13635 | 3146 ft | 199 kts | 310° |
| 2026-04-25 08:57 | 29.53550 | -95.14772 | 2876 ft | 195 kts | 310° |
| 2026-04-25 08:57 | 29.54487 | -95.15895 | 2621 ft | 196 kts | 311° |
| 2026-04-25 08:58 | 29.55413 | -95.17001 | 2357 ft | 193 kts | 313° |
| 2026-04-25 08:58 | 29.56342 | -95.18107 | 2114 ft | 192 kts | 313° |
| 2026-04-25 08:58 | 29.57264 | -95.19215 | 1856 ft | 190 kts | 312° |
| 2026-04-25 08:58 | 29.58160 | -95.20284 | 1612 ft | 181 kts | 313° |
| 2026-04-25 08:59 | 29.58994 | -95.21278 | 1420 ft | 162 kts | 313° |
| 2026-04-25 08:59 | 29.59742 | -95.22169 | 1160 ft | 146 kts | 314° |
| 2026-04-25 08:59 | 29.60415 | -95.22974 | 989 ft | 136 kts | 313° |
| 2026-04-25 08:59 | 29.61067 | -95.23754 | 812 ft | 136 kts | 313° |
| 2026-04-25 09:00 | 29.61739 | -95.24556 | 632 ft | 140 kts | 313° |
| 2026-04-25 09:00 | 29.62397 | -95.25343 | 446 ft | 137 kts | 313° |
| 2026-04-25 09:00 | 29.63057 | -95.26129 | 268 ft | 136 kts | 314° |
| 2026-04-25 09:00 | 29.63714 | -95.26915 | 77 ft | 137 kts | 314° |
| 2026-04-25 09:01 | 29.64319 | -95.27631 | 51 ft | 101 kts | 314° |
| 2026-04-25 09:01 | 29.64662 | -95.28038 | 51 ft | 50 kts | 314° |
| 2026-04-25 09:01 | 29.64828 | -95.28206 | 48 ft | 25 kts | 330° |
| 2026-04-25 09:01 | 29.64969 | -95.28242 | 51 ft | 16 kts | 358° |
| 2026-04-25 09:02 | 29.65046 | -95.28260 | 51 ft | 10 kts | 316° |
| 2026-04-25 09:02 | 29.65092 | -95.28316 | 50 ft | 10 kts | 316° |
| 2026-04-25 09:02 | 29.65148 | -95.28314 | 51 ft | 10 kts | 54° |
| 2026-04-25 09:02 | 29.65171 | -95.28242 | 51 ft | 11 kts | 71° |
| 2026-04-25 09:03 | 29.65207 | -95.28119 | 51 ft | 21 kts | 71° |
| 2026-04-25 09:03 | 29.65213 | -95.27955 | 51 ft | 22 kts | 128° |
| 2026-04-25 09:03 | 29.65141 | -95.27834 | 51 ft | 14 kts | 92° |
| 2026-04-25 09:03 | 29.65143 | -95.27737 | 51 ft | 11 kts | 89° |
| 2026-04-25 09:04 | 29.65144 | -95.27648 | 51 ft | 11 kts | 89° |
| 2026-04-25 09:04 | 29.65187 | -95.27601 | 51 ft | 6 kts | 36° |
| 2026-04-25 09:04 | 29.65220 | -95.27581 | 51 ft | 2 kts | 26° |
| 2026-04-25 09:04 | 29.65229 | -95.27576 | 51 ft | 1 kts | 25° |
| 2026-04-25 09:05 | 29.65233 | -95.27574 | 51 ft | 0 kts | 25° |